createdAt,value
2023-03-26T00:19:45.574Z,100032.06
2023-03-26T00:25:34.125Z,100025.63
2023-03-26T00:31:21.269Z,100015.03
2023-03-26T00:37:08.924Z,100010.13
2023-03-26T00:42:56.265Z,99982.31
2023-03-26T00:48:45.891Z,99969.34
2023-03-26T00:54:32.984Z,99970.16
2023-03-26T01:00:29.559Z,99948.06
2023-03-26T01:06:27.954Z,99941.25
2023-03-26T01:12:18.364Z,99925.13
2023-03-26T01:18:09.937Z,99912.13
2023-03-26T01:23:57.973Z,99902.25
2023-03-26T01:29:48.989Z,99887.91
2023-03-26T01:35:45.118Z,99886.34
2023-03-26T01:41:56.476Z,99874.44
2023-03-26T01:47:45.726Z,99852.88
2023-03-26T01:53:35.139Z,99841.75
2023-03-26T01:59:31.385Z,99831.19
2023-03-26T02:05:49.429Z,99826.97
2023-03-26T02:11:38.393Z,99822.06
2023-03-26T02:17:25.944Z,99822.47
2023-03-26T02:23:12.858Z,99806.44
2023-03-26T02:29:01.720Z,99798.34
2023-03-26T02:34:51.425Z,99790.00
2023-03-26T02:40:38.917Z,99790.22
2023-03-26T02:46:26.356Z,99791.16
2023-03-26T02:52:23.771Z,99775.25
2023-03-26T02:58:17.363Z,99779.59
2023-03-26T03:04:04.489Z,99771.00
2023-03-26T03:10:02.454Z,99758.97
2023-03-26T03:16:24.754Z,99750.25
2023-03-26T03:22:12.054Z,99754.19
2023-03-26T03:28:00.740Z,99749.28
2023-03-26T03:33:47.856Z,99743.41
2023-03-26T03:39:38.570Z,99734.78
2023-03-26T03:45:26.149Z,99728.56
2023-03-26T03:51:28.774Z,99728.09
2023-03-26T03:57:18.833Z,99723.00
2023-03-26T04:03:34.166Z,99721.19
2023-03-26T04:09:26.741Z,99711.97
2023-03-26T04:15:18.020Z,99713.81
2023-03-26T04:21:07.527Z,99705.03
2023-03-26T04:26:58.345Z,99704.63
2023-03-26T04:32:51.839Z,99707.63
2023-03-26T04:38:44.982Z,99702.50
2023-03-26T04:44:35.788Z,99708.94
2023-03-26T04:50:28.170Z,99702.00
2023-03-26T04:56:27.597Z,99707.13
2023-03-26T05:02:34.677Z,99703.09
2023-03-26T05:08:22.017Z,99722.63
2023-03-26T05:14:09.293Z,99723.06
2023-03-26T05:19:56.324Z,99715.38
2023-03-26T05:25:43.277Z,99708.91
2023-03-26T05:31:39.328Z,99701.00
2023-03-26T05:37:26.239Z,99708.63
2023-03-26T05:43:21.368Z,99705.84
2023-03-26T05:49:17.803Z,99711.56
2023-03-26T05:55:08.277Z,99714.31
2023-03-26T06:01:21.008Z,99735.53
2023-03-26T06:07:53.725Z,99719.47
2023-03-26T06:13:41.418Z,99726.13
2023-03-26T06:19:32.141Z,99738.41
2023-03-26T06:25:30.888Z,99742.50
2023-03-26T06:31:37.908Z,99763.31
2023-03-26T06:37:43.723Z,99761.81
2023-03-26T06:43:33.906Z,99762.13
2023-03-26T06:49:39.787Z,99777.44
2023-03-26T06:55:37.232Z,99776.75
2023-03-26T07:01:41.171Z,99794.00
2023-03-26T07:07:47.676Z,99803.84
2023-03-26T07:13:49.651Z,99821.38
2023-03-26T07:19:54.929Z,99837.28
2023-03-26T07:25:47.367Z,99846.63
2023-03-26T07:32:04.595Z,99836.09
2023-03-26T07:38:28.614Z,99850.41
2023-03-26T07:44:52.709Z,99856.66
2023-03-26T07:51:02.992Z,99876.75
2023-03-26T07:57:21.937Z,99872.66
2023-03-26T08:03:40.239Z,99892.59
2023-03-26T08:10:14.200Z,99893.69
2023-03-26T08:16:23.304Z,99903.31
2023-03-26T08:22:29.245Z,99922.41
2023-03-26T08:28:20.069Z,99917.38
2023-03-26T08:34:11.459Z,99929.88
2023-03-26T08:39:58.438Z,99937.19
2023-03-26T08:46:15.362Z,99942.69
2023-03-26T08:52:21.654Z,99945.75
2023-03-26T08:58:26.977Z,99972.03
2023-03-26T09:04:32.597Z,99968.72
2023-03-26T09:10:44.129Z,99976.16
2023-03-26T09:16:53.568Z,99987.50
2023-03-26T09:22:58.442Z,100000.81
2023-03-26T09:29:20.719Z,99999.16
2023-03-26T09:35:14.537Z,100017.16
2023-03-26T09:41:16.694Z,100030.69
2023-03-26T09:47:38.263Z,100040.38
2023-03-26T09:53:40.959Z,100045.72
2023-03-26T09:59:52.372Z,100057.91
2023-03-26T10:06:00.258Z,100067.13
2023-03-26T10:12:09.839Z,100079.88
2023-03-26T10:18:27.044Z,100080.88
2023-03-26T10:24:53.124Z,100100.00
2023-03-26T10:31:07.244Z,100105.66
2023-03-26T10:37:04.053Z,100137.66
2023-03-26T10:43:03.182Z,100138.81
2023-03-26T10:48:53.273Z,100150.28
2023-03-26T10:55:01.645Z,100165.94
2023-03-26T11:00:55.180Z,100168.56
2023-03-26T11:15:35.167Z,100198.06
2023-03-26T11:21:36.794Z,100201.03
2023-03-26T11:28:02.430Z,100197.50
2023-03-26T11:33:55.571Z,100197.69
2023-03-26T11:39:59.293Z,100202.59
2023-03-26T11:45:51.852Z,100215.31
2023-03-26T11:51:44.921Z,100228.09
2023-03-26T11:57:35.149Z,100246.91
2023-03-26T12:03:22.329Z,100256.72
2023-03-26T12:09:20.539Z,100254.59
2023-03-26T12:15:21.556Z,100263.00
2023-03-26T12:21:17.673Z,100273.41
2023-03-26T12:27:28.654Z,100302.19
2023-03-26T12:33:28.283Z,100352.09
2023-03-26T12:40:10.129Z,100379.63
2023-03-26T12:45:40.820Z,100409.97
2023-03-26T12:52:03.906Z,100419.34
2023-03-26T12:59:08.405Z,100432.25
2023-03-26T13:06:02.466Z,100436.69
2023-03-26T13:11:58.384Z,100440.16
2023-03-26T13:17:58.496Z,100467.38
2023-03-26T13:24:03.207Z,100468.97
2023-03-26T13:30:02.507Z,100472.06
2023-03-26T13:36:14.293Z,100494.56
2023-03-26T13:42:18.372Z,100514.47
2023-03-26T13:48:16.529Z,100522.88
2023-03-26T13:54:16.425Z,100525.53
2023-03-26T14:00:13.823Z,100536.59
2023-03-26T14:06:06.571Z,100566.72
2023-03-26T14:11:55.383Z,100566.72
2023-03-26T14:18:03.530Z,100576.47
2023-03-26T14:24:14.391Z,100585.72
2023-03-26T14:30:28.585Z,100597.88
2023-03-26T14:36:18.469Z,100618.75
2023-03-26T14:42:33.493Z,100637.97
2023-03-26T14:48:58.076Z,100623.19
2023-03-26T14:54:48.462Z,100640.38
2023-03-26T15:00:50.171Z,100650.44
2023-03-26T15:06:46.360Z,100666.72
2023-03-26T15:12:52.741Z,100677.84
2023-03-26T15:19:17.851Z,100678.13
2023-03-26T15:25:55.795Z,100694.72
2023-03-26T15:32:03.400Z,100710.38
2023-03-26T15:38:21.040Z,100730.75
2023-03-26T15:44:24.298Z,100719.28
2023-03-26T15:50:35.537Z,100733.84
2023-03-26T15:56:33.335Z,100739.69
2023-03-26T16:02:50.580Z,100771.06
2023-03-26T16:09:20.966Z,100802.03
2023-03-26T16:15:07.690Z,100809.31
2023-03-26T16:21:04.481Z,100824.34
2023-03-26T16:26:51.679Z,100838.25
2023-03-26T16:33:39.635Z,100841.53
2023-03-26T16:39:42.953Z,100848.50
2023-03-26T16:45:42.930Z,100851.22
2023-03-26T16:51:54.691Z,100872.56
2023-03-26T16:57:47.398Z,100882.00
2023-03-26T17:03:45.080Z,100913.72
2023-03-26T17:09:54.021Z,100927.38
2023-03-26T17:15:56.014Z,100945.06
2023-03-26T17:21:55.617Z,100964.03
2023-03-26T17:28:12.318Z,100978.88
2023-03-26T17:34:56.758Z,100983.75
2023-03-26T17:40:50.789Z,100993.09
2023-03-26T17:46:41.390Z,101007.75
2023-03-26T17:52:56.625Z,101022.28
2023-03-26T17:58:48.005Z,101033.31
2023-03-26T18:04:42.240Z,101065.25
2023-03-26T18:10:46.578Z,101079.53
2023-03-26T18:16:42.882Z,101100.00
2023-03-26T18:22:30.781Z,101109.97
2023-03-26T18:28:20.793Z,101110.78
2023-03-26T18:34:20.705Z,101127.63
2023-03-26T18:40:19.012Z,101142.59
2023-03-26T18:46:05.901Z,101154.75
2023-03-26T18:51:57.227Z,101172.38
2023-03-26T18:57:44.650Z,101181.09
2023-03-26T19:03:35.761Z,101195.25
2023-03-26T19:09:31.550Z,101212.00
2023-03-26T19:15:21.090Z,101216.78
2023-03-26T19:21:09.791Z,101224.38
2023-03-26T19:26:59.792Z,101244.34
2023-03-26T19:32:54.010Z,101249.94
2023-03-26T19:38:48.912Z,101266.44
2023-03-26T19:44:39.604Z,101274.00
2023-03-26T19:50:33.230Z,101284.09
2023-03-26T19:56:21.395Z,101291.13
2023-03-26T20:02:12.816Z,101298.44
2023-03-26T20:08:04.794Z,101320.81
2023-03-26T20:13:55.700Z,101329.97
2023-03-26T20:19:43.585Z,101313.41
2023-03-26T20:25:34.004Z,101330.06
2023-03-26T20:31:25.218Z,101346.47
2023-03-26T20:37:14.938Z,101347.97
2023-03-26T20:43:02.128Z,101363.78
2023-03-26T20:48:49.685Z,101371.09
2023-03-26T20:54:39.211Z,101395.28
2023-03-26T21:00:26.187Z,101412.81
2023-03-26T21:06:19.965Z,101424.72
2023-03-26T21:20:00.515Z,101449.53
2023-03-26T21:25:56.428Z,101449.66
2023-03-26T21:32:20.583Z,101455.50
2023-03-26T21:38:36.049Z,101475.06
2023-03-26T21:44:45.324Z,101479.88
2023-03-26T21:50:38.741Z,101479.19
2023-03-26T21:57:20.454Z,101493.16
2023-03-26T22:03:41.530Z,101489.50
2023-03-26T22:15:23.690Z,101520.16
2023-03-26T22:21:12.826Z,101520.94
2023-03-26T22:26:59.609Z,101539.44
2023-03-26T22:32:47.833Z,101558.59
2023-03-26T22:46:33.480Z,101582.41
2023-03-26T22:52:20.278Z,101600.19
2023-03-26T22:58:08.178Z,101607.91
2023-03-26T23:03:55.560Z,101618.22
2023-03-26T23:09:46.928Z,101607.94
2023-03-26T23:15:33.920Z,101619.94
2023-03-26T23:21:22.129Z,101626.25
2023-03-26T23:27:09.035Z,101634.00
2023-03-26T23:32:57.367Z,101634.13
2023-03-26T23:38:51.360Z,101634.47
2023-03-26T23:44:41.043Z,101651.28
2023-03-26T23:50:32.504Z,101642.38
2023-03-26T23:56:21.438Z,101663.28
